sensor_id;sensor_type;location;lat;lon;timestamp;pressure;altitude;pressure_sealevel;temperature;humidity
54920;BME280;63804;53.120;8.764;2023-02-13T00:02:12;103937.13;;;9.50;52.90
54920;BME280;63804;53.120;8.764;2023-02-13T00:04:38;103944.09;;;9.41;53.14
54920;BME280;63804;53.120;8.764;2023-02-13T00:07:03;103948.03;;;9.50;53.41
54920;BME280;63804;53.120;8.764;2023-02-13T00:09:29;103932.78;;;9.54;52.82
54920;BME280;63804;53.120;8.764;2023-02-13T00:11:54;103935.34;;;9.39;53.38
54920;BME280;63804;53.120;8.764;2023-02-13T00:14:20;103933.28;;;9.51;53.05
54920;BME280;63804;53.120;8.764;2023-02-13T00:16:45;103928.34;;;9.48;53.09
54920;BME280;63804;53.120;8.764;2023-02-13T00:19:11;103923.44;;;9.45;53.40
54920;BME280;63804;53.120;8.764;2023-02-13T00:21:36;103922.59;;;9.44;53.11
54920;BME280;63804;53.120;8.764;2023-02-13T00:24:01;103919.16;;;9.27;53.49
54920;BME280;63804;53.120;8.764;2023-02-13T00:26:27;103922.38;;;9.24;53.78
54920;BME280;63804;53.120;8.764;2023-02-13T00:28:52;103918.69;;;9.35;53.26
54920;BME280;63804;53.120;8.764;2023-02-13T00:31:20;103919.00;;;9.39;53.20
54920;BME280;63804;53.120;8.764;2023-02-13T00:33:45;103917.91;;;9.40;53.31
54920;BME280;63804;53.120;8.764;2023-02-13T00:36:12;103923.94;;;9.42;53.41
54920;BME280;63804;53.120;8.764;2023-02-13T00:38:39;103919.66;;;9.51;53.15
54920;BME280;63804;53.120;8.764;2023-02-13T00:41:05;103914.97;;;9.69;52.62
54920;BME280;63804;53.120;8.764;2023-02-13T00:43:31;103918.28;;;9.76;52.59
54920;BME280;63804;53.120;8.764;2023-02-13T00:45:56;103916.28;;;9.66;52.90
54920;BME280;63804;53.120;8.764;2023-02-13T00:48:26;103924.69;;;9.59;52.79
54920;BME280;63804;53.120;8.764;2023-02-13T00:50:52;103932.97;;;9.48;53.12
54920;BME280;63804;53.120;8.764;2023-02-13T00:53:18;103932.47;;;9.51;53.15
54920;BME280;63804;53.120;8.764;2023-02-13T00:55:44;103926.34;;;9.60;52.91
54920;BME280;63804;53.120;8.764;2023-02-13T00:58:09;103926.72;;;9.47;52.88
54920;BME280;63804;53.120;8.764;2023-02-13T01:00:35;103926.16;;;9.45;53.39
54920;BME280;63804;53.120;8.764;2023-02-13T01:03:00;103927.03;;;9.51;53.29
54920;BME280;63804;53.120;8.764;2023-02-13T01:05:26;103928.81;;;9.62;52.76
54920;BME280;63804;53.120;8.764;2023-02-13T01:07:52;103932.38;;;9.68;52.70
54920;BME280;63804;53.120;8.764;2023-02-13T01:10:18;103919.59;;;9.73;52.69
54920;BME280;63804;53.120;8.764;2023-02-13T01:12:43;103925.41;;;9.77;52.54
54920;BME280;63804;53.120;8.764;2023-02-13T01:15:09;103930.88;;;9.55;52.95
54920;BME280;63804;53.120;8.764;2023-02-13T01:17:34;103925.56;;;9.43;53.21
54920;BME280;63804;53.120;8.764;2023-02-13T01:19:59;103929.81;;;9.29;53.53
54920;BME280;63804;53.120;8.764;2023-02-13T01:22:25;103930.63;;;9.29;53.75
54920;BME280;63804;53.120;8.764;2023-02-13T01:24:50;103923.16;;;9.46;53.27
54920;BME280;63804;53.120;8.764;2023-02-13T01:27:16;103909.84;;;9.50;53.28
54920;BME280;63804;53.120;8.764;2023-02-13T01:29:41;103914.31;;;9.61;52.78
54920;BME280;63804;53.120;8.764;2023-02-13T01:32:06;103915.28;;;9.50;52.94
54920;BME280;63804;53.120;8.764;2023-02-13T01:34:32;103919.91;;;9.22;53.81
54920;BME280;63804;53.120;8.764;2023-02-13T01:36:58;103911.63;;;9.12;53.83
54920;BME280;63804;53.120;8.764;2023-02-13T01:39:23;103914.03;;;9.08;54.18
54920;BME280;63804;53.120;8.764;2023-02-13T01:41:49;103913.84;;;9.15;53.91
54920;BME280;63804;53.120;8.764;2023-02-13T01:44:54;103912.84;;;9.26;53.61
54920;BME280;63804;53.120;8.764;2023-02-13T01:47:39;103909.00;;;9.22;53.93
54920;BME280;63804;53.120;8.764;2023-02-13T01:50:12;103908.66;;;9.41;53.31
54920;BME280;63804;53.120;8.764;2023-02-13T01:52:43;103897.97;;;9.61;52.94
54920;BME280;63804;53.120;8.764;2023-02-13T01:55:12;103898.72;;;9.57;52.78
54920;BME280;63804;53.120;8.764;2023-02-13T01:57:40;103887.34;;;9.38;53.51
54920;BME280;63804;53.120;8.764;2023-02-13T02:00:12;103886.22;;;9.34;53.50
54920;BME280;63804;53.120;8.764;2023-02-13T02:02:41;103884.72;;;9.48;53.14
54920;BME280;63804;53.120;8.764;2023-02-13T02:05:08;103894.56;;;9.49;53.16
54920;BME280;63804;53.120;8.764;2023-02-13T02:07:34;103881.34;;;9.36;53.48
54920;BME280;63804;53.120;8.764;2023-02-13T02:10:06;103880.28;;;9.37;53.63
54920;BME280;63804;53.120;8.764;2023-02-13T02:15:39;103882.31;;;9.52;53.13
54920;BME280;63804;53.120;8.764;2023-02-13T02:18:13;103885.09;;;9.57;52.62
54920;BME280;63804;53.120;8.764;2023-02-13T02:39:29;103862.34;;;9.46;53.06
54920;BME280;63804;53.120;8.764;2023-02-13T02:42:29;103860.19;;;9.48;53.01
54920;BME280;63804;53.120;8.764;2023-02-13T02:45:25;103860.13;;;9.43;52.75
54920;BME280;63804;53.120;8.764;2023-02-13T02:50:50;103851.19;;;9.48;52.99
54920;BME280;63804;53.120;8.764;2023-02-13T02:53:41;103856.38;;;9.49;52.85
54920;BME280;63804;53.120;8.764;2023-02-13T02:56:23;103862.44;;;9.56;52.70
54920;BME280;63804;53.120;8.764;2023-02-13T02:58:57;103854.50;;;9.55;52.50
54920;BME280;63804;53.120;8.764;2023-02-13T03:01:43;103859.16;;;9.54;52.54
54920;BME280;63804;53.120;8.764;2023-02-13T03:04:35;103856.41;;;9.54;52.71
54920;BME280;63804;53.120;8.764;2023-02-13T03:07:21;103850.97;;;9.54;52.76
54920;BME280;63804;53.120;8.764;2023-02-13T03:09:52;103846.16;;;9.61;52.56
54920;BME280;63804;53.120;8.764;2023-02-13T03:12:51;103854.59;;;9.60;52.35
54920;BME280;63804;53.120;8.764;2023-02-13T03:15:39;103844.41;;;9.50;52.50
54920;BME280;63804;53.120;8.764;2023-02-13T03:18:25;103845.72;;;9.48;52.79
54920;BME280;63804;53.120;8.764;2023-02-13T03:21:49;103848.94;;;9.39;52.83
54920;BME280;63804;53.120;8.764;2023-02-13T03:24:47;103845.47;;;9.49;52.67
54920;BME280;63804;53.120;8.764;2023-02-13T03:36:20;103850.84;;;9.39;52.92
54920;BME280;63804;53.120;8.764;2023-02-13T03:41:46;103854.59;;;9.33;53.13
54920;BME280;63804;53.120;8.764;2023-02-13T03:44:34;103846.97;;;9.35;53.11
54920;BME280;63804;53.120;8.764;2023-02-13T03:47:02;103850.06;;;9.43;52.96
54920;BME280;63804;53.120;8.764;2023-02-13T03:49:34;103856.84;;;9.41;53.00
54920;BME280;63804;53.120;8.764;2023-02-13T03:52:26;103856.84;;;9.41;52.80
54920;BME280;63804;53.120;8.764;2023-02-13T03:57:42;103855.41;;;9.33;52.96
54920;BME280;63804;53.120;8.764;2023-02-13T04:00:33;103850.78;;;9.34;53.22
54920;BME280;63804;53.120;8.764;2023-02-13T04:05:46;103850.63;;;9.45;52.86
54920;BME280;63804;53.120;8.764;2023-02-13T04:08:13;103856.63;;;9.48;52.78
54920;BME280;63804;53.120;8.764;2023-02-13T04:10:53;103851.41;;;9.41;52.67
54920;BME280;63804;53.120;8.764;2023-02-13T04:13:29;103852.00;;;9.48;52.86
54920;BME280;63804;53.120;8.764;2023-02-13T04:18:49;103857.91;;;9.40;52.88
54920;BME280;63804;53.120;8.764;2023-02-13T04:21:16;103856.72;;;9.25;53.10
54920;BME280;63804;53.120;8.764;2023-02-13T04:23:41;103857.81;;;9.30;53.31
54920;BME280;63804;53.120;8.764;2023-02-13T04:26:15;103862.09;;;9.48;52.84
54920;BME280;63804;53.120;8.764;2023-02-13T04:28:42;103858.34;;;9.26;53.32
54920;BME280;63804;53.120;8.764;2023-02-13T04:31:07;103860.47;;;9.19;53.41
54920;BME280;63804;53.120;8.764;2023-02-13T04:33:32;103852.75;;;9.11;53.84
54920;BME280;63804;53.120;8.764;2023-02-13T04:35:58;103861.41;;;9.08;53.81
54920;BME280;63804;53.120;8.764;2023-02-13T04:38:23;103853.84;;;9.10;53.76
54920;BME280;63804;53.120;8.764;2023-02-13T04:40:48;103853.53;;;9.34;53.19
54920;BME280;63804;53.120;8.764;2023-02-13T04:43:17;103861.03;;;9.49;52.60
54920;BME280;63804;53.120;8.764;2023-02-13T04:45:42;103857.16;;;9.44;52.81
54920;BME280;63804;53.120;8.764;2023-02-13T04:48:08;103855.88;;;9.52;52.51
54920;BME280;63804;53.120;8.764;2023-02-13T04:50:33;103851.44;;;9.46;52.87
54920;BME280;63804;53.120;8.764;2023-02-13T04:52:59;103853.34;;;9.45;52.78
54920;BME280;63804;53.120;8.764;2023-02-13T04:55:26;103850.16;;;9.26;53.32
54920;BME280;63804;53.120;8.764;2023-02-13T04:57:53;103850.69;;;9.23;53.58
54920;BME280;63804;53.120;8.764;2023-02-13T05:00:23;103849.75;;;9.40;53.19
54920;BME280;63804;53.120;8.764;2023-02-13T05:02:49;103845.81;;;9.25;53.34
54920;BME280;63804;53.120;8.764;2023-02-13T05:05:14;103849.97;;;9.06;53.70
54920;BME280;63804;53.120;8.764;2023-02-13T05:07:41;103848.66;;;9.08;53.81
54920;BME280;63804;53.120;8.764;2023-02-13T05:10:07;103855.06;;;9.24;53.55
54920;BME280;63804;53.120;8.764;2023-02-13T05:12:32;103853.56;;;9.39;53.00
54920;BME280;63804;53.120;8.764;2023-02-13T05:14:58;103859.50;;;9.31;53.23
54920;BME280;63804;53.120;8.764;2023-02-13T05:17:23;103851.69;;;9.12;53.43
54920;BME280;63804;53.120;8.764;2023-02-13T05:19:48;103848.91;;;9.07;53.85
54920;BME280;63804;53.120;8.764;2023-02-13T05:22:14;103863.22;;;9.24;53.13
54920;BME280;63804;53.120;8.764;2023-02-13T05:24:57;103868.28;;;9.11;53.51
54920;BME280;63804;53.120;8.764;2023-02-13T05:27:23;103854.16;;;9.14;53.57
54920;BME280;63804;53.120;8.764;2023-02-13T05:29:48;103859.22;;;9.32;53.11
54920;BME280;63804;53.120;8.764;2023-02-13T05:32:14;103860.66;;;9.40;52.74
54920;BME280;63804;53.120;8.764;2023-02-13T05:34:39;103853.88;;;9.42;52.70
54920;BME280;63804;53.120;8.764;2023-02-13T05:37:04;103860.56;;;9.30;53.01
54920;BME280;63804;53.120;8.764;2023-02-13T05:39:30;103862.31;;;9.14;53.43
54920;BME280;63804;53.120;8.764;2023-02-13T05:41:55;103854.28;;;9.02;53.55
54920;BME280;63804;53.120;8.764;2023-02-13T05:44:20;103851.31;;;9.03;53.59
54920;BME280;63804;53.120;8.764;2023-02-13T05:46:46;103862.91;;;8.94;54.01
54920;BME280;63804;53.120;8.764;2023-02-13T05:49:13;103859.88;;;8.90;54.19
54920;BME280;63804;53.120;8.764;2023-02-13T05:51:39;103857.13;;;9.12;53.61
54920;BME280;63804;53.120;8.764;2023-02-13T05:54:05;103864.53;;;9.17;53.14
54920;BME280;63804;53.120;8.764;2023-02-13T05:56:30;103860.13;;;8.88;53.89
54920;BME280;63804;53.120;8.764;2023-02-13T05:58:56;103877.00;;;8.85;54.00
54920;BME280;63804;53.120;8.764;2023-02-13T06:01:22;103875.19;;;8.96;53.81
54920;BME280;63804;53.120;8.764;2023-02-13T06:03:49;103873.41;;;9.07;53.64
54920;BME280;63804;53.120;8.764;2023-02-13T06:06:14;103872.13;;;9.15;53.56
54920;BME280;63804;53.120;8.764;2023-02-13T06:08:40;103867.97;;;9.07;53.56
54920;BME280;63804;53.120;8.764;2023-02-13T06:11:07;103876.75;;;8.87;54.32
54920;BME280;63804;53.120;8.764;2023-02-13T06:13:32;103870.75;;;9.12;53.41
54920;BME280;63804;53.120;8.764;2023-02-13T06:15:57;103868.31;;;8.88;53.63
54920;BME280;63804;53.120;8.764;2023-02-13T06:18:23;103868.75;;;8.80;54.20
54920;BME280;63804;53.120;8.764;2023-02-13T06:20:48;103881.34;;;8.86;54.26
54920;BME280;63804;53.120;8.764;2023-02-13T06:23:14;103883.81;;;9.10;53.38
54920;BME280;63804;53.120;8.764;2023-02-13T06:25:40;103881.13;;;9.15;53.09
54920;BME280;63804;53.120;8.764;2023-02-13T06:28:05;103888.09;;;9.06;53.36
54920;BME280;63804;53.120;8.764;2023-02-13T06:30:31;103891.41;;;9.08;53.58
54920;BME280;63804;53.120;8.764;2023-02-13T06:32:56;103885.97;;;8.86;53.88
54920;BME280;63804;53.120;8.764;2023-02-13T06:35:22;103883.56;;;8.89;54.08
54920;BME280;63804;53.120;8.764;2023-02-13T06:37:47;103885.78;;;8.93;53.81
54920;BME280;63804;53.120;8.764;2023-02-13T06:40:14;103887.91;;;9.13;53.43
54920;BME280;63804;53.120;8.764;2023-02-13T06:42:41;103888.56;;;8.98;53.68
54920;BME280;63804;53.120;8.764;2023-02-13T06:45:07;103894.00;;;8.98;53.81
54920;BME280;63804;53.120;8.764;2023-02-13T06:47:32;103898.91;;;8.96;54.08
54920;BME280;63804;53.120;8.764;2023-02-13T06:49:58;103899.44;;;9.20;53.56
54920;BME280;63804;53.120;8.764;2023-02-13T06:52:23;103900.69;;;9.34;52.77
54920;BME280;63804;53.120;8.764;2023-02-13T06:54:49;103897.75;;;9.41;52.81
54920;BME280;63804;53.120;8.764;2023-02-13T06:57:15;103899.50;;;9.25;52.96
54920;BME280;63804;53.120;8.764;2023-02-13T06:59:41;103903.09;;;9.03;53.57
54920;BME280;63804;53.120;8.764;2023-02-13T07:02:10;103904.47;;;9.06;53.35
54920;BME280;63804;53.120;8.764;2023-02-13T07:04:36;103904.31;;;9.18;53.46
54920;BME280;63804;53.120;8.764;2023-02-13T07:07:01;103906.84;;;9.24;53.28
54920;BME280;63804;53.120;8.764;2023-02-13T07:09:27;103913.72;;;9.05;53.52
54920;BME280;63804;53.120;8.764;2023-02-13T07:11:52;103914.94;;;8.92;54.04
54920;BME280;63804;53.120;8.764;2023-02-13T07:14:17;103913.03;;;8.93;53.79
54920;BME280;63804;53.120;8.764;2023-02-13T07:16:43;103916.72;;;9.03;53.78
54920;BME280;63804;53.120;8.764;2023-02-13T07:19:08;103915.47;;;9.16;53.16
54920;BME280;63804;53.120;8.764;2023-02-13T07:21:34;103916.16;;;9.06;53.71
54920;BME280;63804;53.120;8.764;2023-02-13T07:23:59;103914.16;;;9.19;53.56
54920;BME280;63804;53.120;8.764;2023-02-13T07:26:25;103915.91;;;9.30;52.88
54920;BME280;63804;53.120;8.764;2023-02-13T07:28:51;103915.66;;;9.09;53.63
54920;BME280;63804;53.120;8.764;2023-02-13T07:31:17;103908.84;;;9.07;53.46
54920;BME280;63804;53.120;8.764;2023-02-13T07:33:42;103918.03;;;9.01;53.74
54920;BME280;63804;53.120;8.764;2023-02-13T07:36:07;103922.09;;;8.98;53.93
54920;BME280;63804;53.120;8.764;2023-02-13T07:38:33;103917.41;;;8.94;54.20
54920;BME280;63804;53.120;8.764;2023-02-13T07:41:02;103917.31;;;9.11;53.85
54920;BME280;63804;53.120;8.764;2023-02-13T07:43:34;103926.28;;;9.33;53.22
54920;BME280;63804;53.120;8.764;2023-02-13T07:46:01;103924.09;;;9.08;53.49
54920;BME280;63804;53.120;8.764;2023-02-13T07:48:28;103931.56;;;9.18;53.62
54920;BME280;63804;53.120;8.764;2023-02-13T07:50:58;103928.59;;;9.19;53.52
54920;BME280;63804;53.120;8.764;2023-02-13T07:53:24;103927.88;;;9.29;53.12
54920;BME280;63804;53.120;8.764;2023-02-13T07:55:49;103930.13;;;9.10;53.75
54920;BME280;63804;53.120;8.764;2023-02-13T07:58:14;103924.53;;;9.22;53.38
54920;BME280;63804;53.120;8.764;2023-02-13T08:00:40;103924.91;;;9.31;53.39
54920;BME280;63804;53.120;8.764;2023-02-13T08:03:05;103929.16;;;9.21;53.52
54920;BME280;63804;53.120;8.764;2023-02-13T08:05:31;103926.13;;;9.18;53.53
54920;BME280;63804;53.120;8.764;2023-02-13T08:07:57;103927.03;;;9.23;53.50
54920;BME280;63804;53.120;8.764;2023-02-13T08:10:23;103920.31;;;9.36;53.19
54920;BME280;63804;53.120;8.764;2023-02-13T08:13:08;103924.53;;;9.49;52.78
54920;BME280;63804;53.120;8.764;2023-02-13T08:15:34;103920.75;;;9.50;53.05
54920;BME280;63804;53.120;8.764;2023-02-13T08:17:59;103919.59;;;9.46;52.94
54920;BME280;63804;53.120;8.764;2023-02-13T08:20:25;103929.81;;;9.29;53.18
54920;BME280;63804;53.120;8.764;2023-02-13T08:22:50;103922.28;;;9.41;53.29
54920;BME280;63804;53.120;8.764;2023-02-13T08:25:16;103917.91;;;9.40;53.30
54920;BME280;63804;53.120;8.764;2023-02-13T08:27:43;103922.88;;;9.48;52.88
54920;BME280;63804;53.120;8.764;2023-02-13T08:30:08;103927.44;;;9.37;53.14
54920;BME280;63804;53.120;8.764;2023-02-13T08:32:34;103935.25;;;9.29;53.44
54920;BME280;63804;53.120;8.764;2023-02-13T08:34:59;103926.22;;;9.28;53.18
54920;BME280;63804;53.120;8.764;2023-02-13T08:37:25;103929.53;;;9.30;53.31
54920;BME280;63804;53.120;8.764;2023-02-13T08:39:50;103931.22;;;9.36;53.08
54920;BME280;63804;53.120;8.764;2023-02-13T08:42:15;103920.97;;;9.43;52.74
54920;BME280;63804;53.120;8.764;2023-02-13T08:44:41;103930.00;;;9.49;52.70
54920;BME280;63804;53.120;8.764;2023-02-13T08:47:07;103924.84;;;9.53;52.86
54920;BME280;63804;53.120;8.764;2023-02-13T08:49:33;103926.22;;;9.50;52.73
54920;BME280;63804;53.120;8.764;2023-02-13T08:51:59;103927.72;;;9.41;53.13
54920;BME280;63804;53.120;8.764;2023-02-13T08:54:24;103933.13;;;9.36;53.02
54920;BME280;63804;53.120;8.764;2023-02-13T08:56:50;103926.72;;;9.47;52.75
54920;BME280;63804;53.120;8.764;2023-02-13T08:59:15;103926.06;;;9.40;52.92
54920;BME280;63804;53.120;8.764;2023-02-13T09:01:41;103932.06;;;9.37;53.19
54920;BME280;63804;53.120;8.764;2023-02-13T09:04:06;103930.72;;;9.39;53.17
54920;BME280;63804;53.120;8.764;2023-02-13T09:06:32;103932.69;;;9.44;53.04
54920;BME280;63804;53.120;8.764;2023-02-13T09:08:57;103939.66;;;9.35;53.11
54920;BME280;63804;53.120;8.764;2023-02-13T09:11:23;103940.69;;;9.29;53.23
54920;BME280;63804;53.120;8.764;2023-02-13T09:13:51;103943.38;;;9.23;53.63
54920;BME280;63804;53.120;8.764;2023-02-13T09:16:16;103946.16;;;9.29;53.34
54920;BME280;63804;53.120;8.764;2023-02-13T09:18:42;103941.47;;;9.51;53.06
54920;BME280;63804;53.120;8.764;2023-02-13T09:21:10;103934.13;;;9.52;52.76
54920;BME280;63804;53.120;8.764;2023-02-13T09:23:37;103942.03;;;9.53;52.90
54920;BME280;63804;53.120;8.764;2023-02-13T09:26:09;103941.09;;;9.64;52.65
54920;BME280;63804;53.120;8.764;2023-02-13T09:28:35;103948.16;;;9.60;52.57
54920;BME280;63804;53.120;8.764;2023-02-13T09:31:12;103938.75;;;9.51;52.86
54920;BME280;63804;53.120;8.764;2023-02-13T09:33:42;103936.81;;;9.74;52.69
54920;BME280;63804;53.120;8.764;2023-02-13T09:36:10;103936.47;;;9.65;52.47
54920;BME280;63804;53.120;8.764;2023-02-13T09:38:38;103940.56;;;9.68;52.71
54920;BME280;63804;53.120;8.764;2023-02-13T09:41:22;103938.88;;;9.61;52.70
54920;BME280;63804;53.120;8.764;2023-02-13T09:46:18;103935.16;;;9.73;52.32
54920;BME280;63804;53.120;8.764;2023-02-13T09:48:48;103935.25;;;9.83;52.47
54920;BME280;63804;53.120;8.764;2023-02-13T09:51:17;103936.66;;;9.86;52.24
54920;BME280;63804;53.120;8.764;2023-02-13T09:53:52;103937.97;;;9.83;52.58
54920;BME280;63804;53.120;8.764;2023-02-13T10:02:00;103942.31;;;9.79;52.28
54920;BME280;63804;53.120;8.764;2023-02-13T10:04:40;103942.19;;;9.63;52.56
54920;BME280;63804;53.120;8.764;2023-02-13T10:07:22;103947.69;;;9.69;52.74
54920;BME280;63804;53.120;8.764;2023-02-13T10:10:02;103949.81;;;9.67;52.28
54920;BME280;63804;53.120;8.764;2023-02-13T10:13:00;103945.56;;;9.76;52.00
54920;BME280;63804;53.120;8.764;2023-02-13T10:15:46;103943.91;;;9.75;52.11
54920;BME280;63804;53.120;8.764;2023-02-13T10:18:21;103945.59;;;9.81;52.05
54920;BME280;63804;53.120;8.764;2023-02-13T10:20:53;103953.22;;;9.79;52.03
54920;BME280;63804;53.120;8.764;2023-02-13T10:23:30;103953.84;;;9.86;51.61
54920;BME280;63804;53.120;8.764;2023-02-13T10:26:01;103949.78;;;9.89;51.60
54920;BME280;63804;53.120;8.764;2023-02-13T10:29:02;103949.94;;;9.77;51.23
54920;BME280;63804;53.120;8.764;2023-02-13T10:31:48;103951.75;;;9.66;51.42
54920;BME280;63804;53.120;8.764;2023-02-13T10:34:16;103946.59;;;9.70;51.31
54920;BME280;63804;53.120;8.764;2023-02-13T10:36:46;103944.75;;;9.75;51.02
54920;BME280;63804;53.120;8.764;2023-02-13T10:39:27;103945.59;;;9.81;50.51
54920;BME280;63804;53.120;8.764;2023-02-13T10:44:43;103951.06;;;9.81;50.28
54920;BME280;63804;53.120;8.764;2023-02-13T10:47:18;103951.66;;;9.88;50.23
54920;BME280;63804;53.120;8.764;2023-02-13T10:52:46;103950.59;;;9.89;49.96
54920;BME280;63804;53.120;8.764;2023-02-13T10:55:49;103945.69;;;9.91;49.04
54920;BME280;63804;53.120;8.764;2023-02-13T11:00:57;103931.72;;;9.82;49.15
54920;BME280;63804;53.120;8.764;2023-02-13T11:03:28;103943.22;;;9.90;49.06
54920;BME280;63804;53.120;8.764;2023-02-13T11:05:56;103943.28;;;10.00;48.72
54920;BME280;63804;53.120;8.764;2023-02-13T11:08:34;103936.66;;;9.86;48.41
54920;BME280;63804;53.120;8.764;2023-02-13T11:11:03;103925.00;;;9.95;48.55
54920;BME280;63804;53.120;8.764;2023-02-13T11:13:29;103929.31;;;9.91;48.50
54920;BME280;63804;53.120;8.764;2023-02-13T11:15:55;103923.31;;;9.89;48.06
54920;BME280;63804;53.120;8.764;2023-02-13T11:18:22;103920.06;;;9.92;48.08
54920;BME280;63804;53.120;8.764;2023-02-13T11:21:02;103918.72;;;10.00;47.90
54920;BME280;63804;53.120;8.764;2023-02-13T11:26:05;103917.28;;;9.87;48.15
54920;BME280;63804;53.120;8.764;2023-02-13T11:28:43;103914.03;;;9.90;48.39
54920;BME280;63804;53.120;8.764;2023-02-13T11:31:21;103917.91;;;9.99;48.33
54920;BME280;63804;53.120;8.764;2023-02-13T11:33:47;103907.31;;;10.03;48.36
54920;BME280;63804;53.120;8.764;2023-02-13T11:36:16;103912.56;;;10.15;48.12
54920;BME280;63804;53.120;8.764;2023-02-13T11:38:42;103904.97;;;10.17;48.27
54920;BME280;63804;53.120;8.764;2023-02-13T11:41:13;103903.22;;;10.00;48.19
54920;BME280;63804;53.120;8.764;2023-02-13T11:43:57;103897.28;;;10.14;47.71
54920;BME280;63804;53.120;8.764;2023-02-13T11:46:30;103892.63;;;10.09;47.96
54920;BME280;63804;53.120;8.764;2023-02-13T11:49:16;103898.41;;;10.18;47.32
54920;BME280;63804;53.120;8.764;2023-02-13T11:51:45;103896.44;;;10.13;47.46
54920;BME280;63804;53.120;8.764;2023-02-13T11:54:24;103897.53;;;10.07;47.20
54920;BME280;63804;53.120;8.764;2023-02-13T11:56:54;103896.22;;;10.20;47.31
54920;BME280;63804;53.120;8.764;2023-02-13T11:59:22;103907.59;;;10.07;47.27
54920;BME280;63804;53.120;8.764;2023-02-13T12:02:01;103898.34;;;10.08;46.25
54920;BME280;63804;53.120;8.764;2023-02-13T12:04:26;103909.25;;;10.08;47.24
54920;BME280;63804;53.120;8.764;2023-02-13T12:07:10;103904.09;;;10.11;46.45
54920;BME280;63804;53.120;8.764;2023-02-13T12:09:36;103910.09;;;10.13;46.12
54920;BME280;63804;53.120;8.764;2023-02-13T12:12:03;103907.69;;;10.17;47.25
54920;BME280;63804;53.120;8.764;2023-02-13T12:14:33;103911.97;;;10.08;47.17
54920;BME280;63804;53.120;8.764;2023-02-13T12:17:06;103909.78;;;10.05;47.17
54920;BME280;63804;53.120;8.764;2023-02-13T12:19:34;103909.19;;;9.97;47.31
54920;BME280;63804;53.120;8.764;2023-02-13T12:30:57;103886.00;;;10.00;46.22
54920;BME280;63804;53.120;8.764;2023-02-13T12:33:56;103886.00;;;10.00;46.60
54920;BME280;63804;53.120;8.764;2023-02-13T12:47:24;103878.78;;;10.26;46.04
54920;BME280;63804;53.120;8.764;2023-02-13T12:50:07;103874.13;;;10.22;45.79
54920;BME280;63804;53.120;8.764;2023-02-13T12:56:07;103867.63;;;10.28;45.28
54920;BME280;63804;53.120;8.764;2023-02-13T13:07:23;103855.91;;;10.32;45.57
54920;BME280;63804;53.120;8.764;2023-02-13T13:10:02;103860.25;;;10.33;45.56
54920;BME280;63804;53.120;8.764;2023-02-13T13:23:10;103847.41;;;10.24;45.34
54920;BME280;63804;53.120;8.764;2023-02-13T13:31:15;103853.16;;;10.27;45.88
54920;BME280;63804;53.120;8.764;2023-02-13T13:33:45;103852.00;;;10.18;45.89
54920;BME280;63804;53.120;8.764;2023-02-13T13:39:15;103850.16;;;10.29;45.47
54920;BME280;63804;53.120;8.764;2023-02-13T13:46:53;103835.13;;;10.26;45.74
54920;BME280;63804;53.120;8.764;2023-02-13T13:49:43;103826.97;;;10.36;46.04
54920;BME280;63804;53.120;8.764;2023-02-13T13:52:27;103827.00;;;10.42;45.59
54920;BME280;63804;53.120;8.764;2023-02-13T13:54:55;103825.88;;;10.32;46.10
54920;BME280;63804;53.120;8.764;2023-02-13T13:59:57;103831.50;;;10.10;46.42
54920;BME280;63804;53.120;8.764;2023-02-13T14:05:27;103826.38;;;10.24;46.46
54920;BME280;63804;53.120;8.764;2023-02-13T14:11:02;103817.53;;;10.07;46.55
54920;BME280;63804;53.120;8.764;2023-02-13T14:13:30;103813.47;;;10.09;46.73
54920;BME280;63804;53.120;8.764;2023-02-13T14:15:56;103811.06;;;10.18;46.55
54920;BME280;63804;53.120;8.764;2023-02-13T14:18:22;103814.34;;;10.20;46.41
54920;BME280;63804;53.120;8.764;2023-02-13T14:20:51;103816.53;;;10.23;46.02
54920;BME280;63804;53.120;8.764;2023-02-13T14:23:29;103812.19;;;10.22;46.20
54920;BME280;63804;53.120;8.764;2023-02-13T14:28:54;103808.69;;;10.37;46.32
54920;BME280;63804;53.120;8.764;2023-02-13T14:31:27;103811.97;;;10.34;46.28
54920;BME280;63804;53.120;8.764;2023-02-13T14:36:40;103808.38;;;10.33;46.52
54920;BME280;63804;53.120;8.764;2023-02-13T14:44:22;103808.78;;;10.05;46.92
54920;BME280;63804;53.120;8.764;2023-02-13T14:46:50;103802.84;;;10.13;46.70
54920;BME280;63804;53.120;8.764;2023-02-13T14:49:26;103812.44;;;10.21;46.55
54920;BME280;63804;53.120;8.764;2023-02-13T14:51:58;103816.00;;;10.26;46.65
54920;BME280;63804;53.120;8.764;2023-02-13T14:54:31;103806.72;;;10.22;46.35
54920;BME280;63804;53.120;8.764;2023-02-13T14:57:19;103811.31;;;10.16;46.72
54920;BME280;63804;53.120;8.764;2023-02-13T14:59:49;103806.44;;;10.18;46.78
54920;BME280;63804;53.120;8.764;2023-02-13T15:02:22;103800.09;;;10.08;46.96
54920;BME280;63804;53.120;8.764;2023-02-13T15:04:54;103799.56;;;10.11;47.07
54920;BME280;63804;53.120;8.764;2023-02-13T15:07:25;103791.97;;;10.23;46.69
54920;BME280;63804;53.120;8.764;2023-02-13T15:09:57;103792.72;;;10.08;46.98
54920;BME280;63804;53.120;8.764;2023-02-13T15:12:35;103794.13;;;10.16;47.03
54920;BME280;63804;53.120;8.764;2023-02-13T15:15:02;103788.06;;;10.04;47.14
54920;BME280;63804;53.120;8.764;2023-02-13T15:17:41;103795.75;;;10.12;47.26
54920;BME280;63804;53.120;8.764;2023-02-13T15:20:24;103791.41;;;10.16;46.93
54920;BME280;63804;53.120;8.764;2023-02-13T15:22:51;103791.09;;;10.12;47.04
54920;BME280;63804;53.120;8.764;2023-02-13T15:25:30;103794.16;;;10.26;47.01
54920;BME280;63804;53.120;8.764;2023-02-13T15:27:58;103791.16;;;10.23;46.89
54920;BME280;63804;53.120;8.764;2023-02-13T15:30:31;103794.91;;;10.11;47.52
54920;BME280;63804;53.120;8.764;2023-02-13T15:32:59;103793.63;;;10.24;47.01
54920;BME280;63804;53.120;8.764;2023-02-13T15:35:28;103795.78;;;10.17;47.06